Time;durP1;ratioP1;P1;durP2;ratioP2;P2;SDS_P1;SDS_P2;PMS_P1;PMS_P2;Temp;Humidity;BMP_temperature;BMP_pressure;BME280_temperature;BME280_humidity;BME280_pressure;Samples;Min_cycle;Max_cycle;Signal;HPM_P1;HPM_P2
2021/12/20 00:00:38;;;;;;;33.03;19.58;;;-2.10;99.90;;;;;;5290771;28;20424;-72
2021/12/20 00:03:09;;;;;;;27.23;14.77;;;-2.20;99.90;;;;;;5290573;28;20062;-72
2021/12/20 00:05:40;;;;;;;23.85;14.13;;;-2.10;99.90;;;;;;5290721;28;20489;-72
2021/12/20 00:08:11;;;;;;;28.67;14.38;;;-2.00;99.90;;;;;;5290758;28;20026;-72
2021/12/20 00:10:42;;;;;;;23.17;12.60;;;-2.10;99.90;;;;;;5290304;28;20036;-73
2021/12/20 00:13:13;;;;;;;25.48;12.27;;;-1.80;99.90;;;;;;5290762;28;20030;-72
2021/12/20 00:15:45;;;;;;;22.27;11.23;;;-1.70;99.90;;;;;;5290536;28;20026;-72
2021/12/20 00:18:15;;;;;;;22.13;12.50;;;-1.60;99.90;;;;;;5290465;28;20034;-76
2021/12/20 00:20:46;;;;;;;43.38;19.92;;;-1.90;99.90;;;;;;5290303;28;20119;-72
2021/12/20 00:23:17;;;;;;;48.92;21.80;;;-1.70;99.90;;;;;;5290164;28;20482;-73
2021/12/20 00:25:48;;;;;;;38.05;19.70;;;-1.50;99.90;;;;;;5290478;28;20118;-76
2021/12/20 00:28:20;;;;;;;26.48;14.05;;;-1.30;99.90;;;;;;5290292;28;20131;-73
2021/12/20 00:30:51;;;;;;;24.33;13.15;;;-1.10;99.90;;;;;;5290247;28;20110;-73
2021/12/20 00:33:22;;;;;;;25.88;12.98;;;-1.10;99.90;;;;;;5290103;28;20023;-73
2021/12/20 00:35:53;;;;;;;29.58;13.73;;;-0.90;99.90;;;;;;5289970;28;20024;-73
2021/12/20 00:41:13;;;;;;;35.20;18.05;;;-1.30;99.90;;;;;;5290034;28;20148;-73
2021/12/20 00:43:44;;;;;;;30.08;14.55;;;-1.50;99.90;;;;;;5290012;28;20051;-73
2021/12/20 00:46:15;;;;;;;27.17;14.20;;;-1.70;99.90;;;;;;5290185;28;20024;-74
2021/12/20 00:48:46;;;;;;;21.10;12.10;;;-1.50;99.90;;;;;;5290033;28;20024;-76
2021/12/20 00:51:16;;;;;;;33.58;17.70;;;-1.20;99.90;;;;;;5290005;28;20470;-76
2021/12/20 00:53:47;;;;;;;21.92;12.15;;;-1.30;99.90;;;;;;5289967;28;20024;-75
2021/12/20 00:56:18;;;;;;;19.25;10.15;;;-1.30;99.90;;;;;;5289894;28;20420;-76
2021/12/20 00:58:49;;;;;;;31.38;16.45;;;-1.10;99.90;;;;;;5289957;28;20020;-73
2021/12/20 01:01:20;;;;;;;20.20;11.55;;;-1.50;99.90;;;;;;5289828;28;20528;-73
2021/12/20 01:03:51;;;;;;;28.67;15.57;;;-0.70;99.90;;;;;;5289779;28;20020;-74
2021/12/20 01:06:21;;;;;;;32.35;16.73;;;-0.80;99.90;;;;;;5289912;28;20053;-71
2021/12/20 01:08:52;;;;;;;21.38;11.27;;;-0.70;99.90;;;;;;5289819;28;20438;-74
2021/12/20 01:11:26;;;;;;;22.85;11.20;;;-0.80;99.90;;;;;;5289304;28;20122;-74
2021/12/20 01:13:59;;;;;;;21.20;13.55;;;-0.70;99.90;;;;;;5289727;28;20071;-74
2021/12/20 01:16:32;;;;;;;20.27;11.73;;;-0.40;99.90;;;;;;5290100;28;20491;-74
2021/12/20 01:19:03;;;;;;;24.52;13.88;;;-0.60;99.90;;;;;;5289727;28;20043;-73
2021/12/20 01:21:33;;;;;;;20.58;10.77;;;-0.60;99.90;;;;;;5289671;28;20439;-74
2021/12/20 01:24:05;;;;;;;99.35;36.80;;;-0.80;99.90;;;;;;5289570;28;20031;-73
2021/12/20 01:26:35;;;;;;;49.30;19.23;;;-0.50;99.90;;;;;;5289666;28;20027;-74
2021/12/20 01:29:06;;;;;;;19.70;11.25;;;-0.70;99.90;;;;;;5289670;28;20390;-73
2021/12/20 01:31:37;;;;;;;20.00;10.77;;;-0.80;99.90;;;;;;5289566;28;20463;-74
2021/12/20 01:34:08;;;;;;;21.27;13.13;;;-1.00;99.90;;;;;;5289581;28;20032;-74
2021/12/20 01:36:39;;;;;;;29.02;12.15;;;-0.70;99.90;;;;;;5289610;28;20110;-74
2021/12/20 01:39:10;;;;;;;18.27;11.20;;;-0.70;99.90;;;;;;5289566;28;20414;-73
2021/12/20 01:41:43;;;;;;;21.35;11.82;;;-1.00;99.90;;;;;;5289279;28;20433;-73
2021/12/20 01:44:14;;;;;;;23.15;12.82;;;-1.00;99.90;;;;;;5289403;28;20565;-74
2021/12/20 01:46:45;;;;;;;40.38;17.83;;;-1.20;99.90;;;;;;5290142;28;20062;-74
2021/12/20 01:49:17;;;;;;;23.25;11.77;;;-1.30;99.90;;;;;;5293502;28;20114;-74
2021/12/20 01:52:01;;;;;;;21.30;11.15;;;-1.00;99.90;;;;;;5293287;28;20107;-74
2021/12/20 01:54:32;;;;;;;17.30;11.02;;;-1.40;99.90;;;;;;5293484;28;20030;-74
2021/12/20 01:57:04;;;;;;;21.40;11.32;;;-0.90;99.90;;;;;;5293360;28;20020;-74
2021/12/20 01:59:39;;;;;;;27.50;14.98;;;-0.80;99.90;;;;;;5293241;28;20032;-74
2021/12/20 02:02:10;;;;;;;16.90;10.55;;;-1.10;99.90;;;;;;5293115;28;20115;-74
2021/12/20 02:04:47;;;;;;;19.98;10.98;;;-0.70;99.90;;;;;;5293207;28;20103;-76
2021/12/20 02:07:35;;;;;;;18.92;9.75;;;-0.90;99.90;;;;;;5293204;28;20073;-74
2021/12/20 02:10:06;;;;;;;16.27;9.73;;;-1.00;99.90;;;;;;5292713;28;20031;-74
2021/12/20 02:12:37;;;;;;;20.65;12.07;;;-1.20;99.90;;;;;;5292953;28;20032;-73
2021/12/20 02:15:08;;;;;;;17.42;10.95;;;-1.10;99.90;;;;;;5292836;28;20027;-74
2021/12/20 02:17:40;;;;;;;20.85;12.13;;;-1.40;99.90;;;;;;5292920;28;20028;-74
2021/12/20 02:20:24;;;;;;;19.80;11.13;;;-1.20;99.90;;;;;;5292695;28;20040;-74
2021/12/20 02:22:57;;;;;;;52.63;22.30;;;-1.00;99.90;;;;;;5292773;28;20038;-74
2021/12/20 02:25:29;;;;;;;103.95;29.65;;;-1.20;99.90;;;;;;5292828;28;20435;-74
2021/12/20 02:28:08;;;;;;;198.18;51.75;;;-0.90;99.90;;;;;;5292639;28;20020;-74
2021/12/20 02:39:01;;;;;;;19.73;11.45;;;-0.90;99.90;;;;;;5292731;28;19904;-74
2021/12/20 02:41:33;;;;;;;35.78;16.60;;;-0.80;99.90;;;;;;5292145;28;20050;-73
2021/12/20 02:44:06;;;;;;;29.50;14.75;;;-0.80;99.90;;;;;;5292298;28;20023;-74
2021/12/20 02:49:14;;;;;;;19.92;10.80;;;-0.90;99.90;;;;;;5292389;28;20488;-73
2021/12/20 02:51:47;;;;;;;15.75;10.45;;;-0.90;99.90;;;;;;5292210;28;20027;-73
2021/12/20 02:54:20;;;;;;;17.63;11.02;;;-0.90;99.90;;;;;;5292266;28;20016;-73
2021/12/20 02:56:52;;;;;;;17.13;10.70;;;-0.60;99.90;;;;;;5292205;28;20028;-76
2021/12/20 02:59:23;;;;;;;16.48;9.48;;;-0.70;99.90;;;;;;5291988;27;20024;-74
2021/12/20 03:01:58;;;;;;;15.95;8.95;;;-0.90;99.90;;;;;;5291948;28;20031;-74
2021/12/20 03:04:29;;;;;;;19.67;9.73;;;-0.90;99.90;;;;;;5291883;28;20027;-74
2021/12/20 03:07:04;;;;;;;17.70;10.27;;;-1.10;99.90;;;;;;5291872;28;20063;-74
2021/12/20 03:09:38;;;;;;;24.05;12.15;;;-1.20;99.90;;;;;;5291715;28;20125;-74
2021/12/20 03:12:12;;;;;;;19.67;11.10;;;-1.50;99.90;;;;;;5290402;28;20082;-74
2021/12/20 03:14:46;;;;;;;27.38;15.35;;;-1.30;99.90;;;;;;5291802;28;20408;-74
2021/12/20 03:17:17;;;;;;;29.63;15.35;;;-1.50;99.90;;;;;;5291784;28;20020;-73
2021/12/20 03:19:48;;;;;;;20.52;11.93;;;-1.00;99.90;;;;;;5291556;28;20352;-73
2021/12/20 03:22:19;;;;;;;36.58;16.73;;;-1.20;99.90;;;;;;5291363;27;20066;-74
2021/12/20 03:24:50;;;;;;;25.77;14.07;;;-1.00;99.90;;;;;;5291583;28;20118;-77
2021/12/20 03:27:21;;;;;;;22.23;13.15;;;-0.80;99.90;;;;;;5291700;28;20118;-74
2021/12/20 03:29:52;;;;;;;27.83;14.43;;;-1.00;99.90;;;;;;5291520;28;20023;-74
2021/12/20 03:32:23;;;;;;;21.45;12.13;;;-1.00;99.90;;;;;;5291426;28;20080;-73
2021/12/20 03:34:54;;;;;;;20.30;12.60;;;-0.90;99.90;;;;;;5291370;28;20030;-74
2021/12/20 03:37:24;;;;;;;20.40;11.60;;;-0.60;99.90;;;;;;5291274;28;20197;-74
2021/12/20 03:39:56;;;;;;;20.50;11.43;;;-0.60;99.90;;;;;;5290951;28;20032;-74
2021/12/20 03:42:28;;;;;;;20.92;12.60;;;-0.70;99.90;;;;;;5291053;27;20039;-73
2021/12/20 03:44:59;;;;;;;22.85;12.30;;;-0.80;99.90;;;;;;5291142;27;20023;-72
2021/12/20 03:47:30;;;;;;;20.45;11.50;;;-0.60;99.90;;;;;;5291089;28;20534;-73
2021/12/20 03:50:00;;;;;;;21.48;12.98;;;-0.80;99.90;;;;;;5291244;28;20034;-73
2021/12/20 03:52:31;;;;;;;25.15;11.90;;;-0.60;99.90;;;;;;5290937;28;20059;-74
2021/12/20 03:55:02;;;;;;;21.15;11.40;;;-0.50;99.90;;;;;;5291076;28;20034;-76
2021/12/20 03:57:33;;;;;;;24.67;12.07;;;-0.60;99.90;;;;;;5290924;28;20055;-73
2021/12/20 04:00:08;;;;;;;22.85;12.10;;;-0.50;99.90;;;;;;5290784;28;20020;-73
2021/12/20 04:02:43;;;;;;;21.50;12.85;;;-0.60;99.90;;;;;;5290677;28;20027;-73
2021/12/20 04:05:16;;;;;;;18.23;10.82;;;-0.50;99.90;;;;;;5290839;28;20012;-73
2021/12/20 04:07:46;;;;;;;18.77;10.82;;;-0.60;99.90;;;;;;5290697;28;20027;-73
2021/12/20 04:10:17;;;;;;;31.77;15.45;;;-0.50;99.90;;;;;;5289782;27;20050;-73
2021/12/20 04:12:48;;;;;;;20.65;12.32;;;-0.30;99.90;;;;;;5290671;28;20039;-73
2021/12/20 04:15:19;;;;;;;17.27;10.20;;;-0.30;99.90;;;;;;5289373;28;20024;-73
2021/12/20 04:17:50;;;;;;;19.88;11.60;;;-0.20;99.90;;;;;;5290552;28;20026;-73
2021/12/20 04:20:21;;;;;;;20.33;10.98;;;-0.30;99.90;;;;;;5290434;28;20474;-73
2021/12/20 04:22:52;;;;;;;22.27;11.95;;;-0.40;99.90;;;;;;5290336;28;20102;-73
2021/12/20 04:25:22;;;;;;;21.23;11.82;;;-0.50;99.90;;;;;;5290405;28;20054;-73
2021/12/20 04:27:53;;;;;;;24.63;13.43;;;-0.60;99.90;;;;;;5290365;28;20535;-72
2021/12/20 04:30:28;;;;;;;19.08;11.75;;;-0.40;99.90;;;;;;5290382;28;20023;-73
2021/12/20 04:32:59;;;;;;;21.23;12.35;;;-0.40;99.90;;;;;;5288946;28;20157;-73
2021/12/20 04:35:30;;;;;;;19.38;10.85;;;0.00;99.90;;;;;;5290328;28;20028;-73
2021/12/20 04:38:02;;;;;;;22.75;11.85;;;0.30;99.90;;;;;;5290331;28;20047;-73
2021/12/20 04:40:33;;;;;;;25.15;12.40;;;0.20;99.90;;;;;;5290046;28;20063;-73
2021/12/20 04:43:05;;;;;;;19.80;10.98;;;0.20;99.90;;;;;;5289985;28;20090;-73
2021/12/20 04:45:36;;;;;;;24.73;12.68;;;0.50;99.90;;;;;;5288841;28;20495;-73
2021/12/20 04:48:09;;;;;;;27.90;13.68;;;0.50;99.90;;;;;;5290112;28;20091;-74
2021/12/20 04:50:40;;;;;;;21.80;10.55;;;0.60;99.90;;;;;;5290067;28;20423;-73
2021/12/20 04:53:10;;;;;;;23.40;14.27;;;0.70;99.90;;;;;;5288693;28;20114;-73
2021/12/20 04:55:41;;;;;;;23.70;11.63;;;0.70;99.90;;;;;;5289928;28;20377;-72
2021/12/20 04:58:12;;;;;;;19.58;11.93;;;0.80;99.90;;;;;;5288745;28;20056;-74
2021/12/20 05:00:44;;;;;;;20.17;12.75;;;0.90;99.90;;;;;;5289905;28;20123;-72
2021/12/20 05:03:15;;;;;;;22.75;11.13;;;0.80;99.90;;;;;;5289764;28;20019;-73
2021/12/20 05:05:45;;;;;;;20.70;11.05;;;0.90;99.90;;;;;;5288563;28;20148;-72
2021/12/20 05:08:16;;;;;;;18.27;10.98;;;0.90;99.90;;;;;;5289862;28;20091;-72
2021/12/20 05:10:47;;;;;;;17.15;9.82;;;1.10;99.90;;;;;;5289442;28;20695;-73
2021/12/20 05:13:18;;;;;;;22.83;14.32;;;1.00;99.90;;;;;;5289836;28;20030;-73
2021/12/20 05:15:49;;;;;;;46.92;26.20;;;0.80;99.90;;;;;;5289761;28;20451;-73
2021/12/20 05:18:19;;;;;;;49.72;26.00;;;0.70;99.90;;;;;;5289758;28;20580;-74
2021/12/20 05:20:50;;;;;;;48.13;26.80;;;0.60;99.90;;;;;;5289667;28;20039;-73
2021/12/20 05:23:21;;;;;;;51.15;27.75;;;0.60;99.90;;;;;;5293120;28;20038;-75
2021/12/20 05:25:52;;;;;;;44.13;26.35;;;0.70;99.90;;;;;;5292766;28;20466;-73
2021/12/20 05:28:24;;;;;;;42.83;24.45;;;0.70;99.90;;;;;;5293889;28;20059;-73
2021/12/20 05:30:55;;;;;;;35.35;20.65;;;0.70;99.90;;;;;;5292572;28;20023;-73
2021/12/20 05:33:26;;;;;;;101.93;40.15;;;0.70;99.90;;;;;;5292471;28;20065;-73
2021/12/20 05:35:57;;;;;;;40.53;22.48;;;0.60;99.90;;;;;;5293759;28;20039;-73
2021/12/20 05:38:28;;;;;;;43.92;24.15;;;0.40;99.90;;;;;;5292397;28;20072;-73
2021/12/20 05:40:59;;;;;;;42.92;22.38;;;0.40;99.90;;;;;;5293458;28;20138;-73
2021/12/20 05:43:30;;;;;;;81.30;33.50;;;0.60;99.90;;;;;;5293470;28;20131;-73
2021/12/20 05:46:00;;;;;;;55.70;26.52;;;0.50;99.90;;;;;;5293574;28;20028;-73
2021/12/20 05:48:31;;;;;;;43.13;22.63;;;0.50;99.90;;;;;;5293583;28;20020;-73
2021/12/20 05:51:02;;;;;;;59.60;25.15;;;0.50;99.90;;;;;;5293492;28;20034;-73
2021/12/20 05:53:33;;;;;;;35.72;19.95;;;0.40;99.90;;;;;;5293392;28;20023;-73
2021/12/20 05:56:04;;;;;;;37.13;21.30;;;0.50;99.90;;;;;;5293043;28;20035;-73
2021/12/20 05:58:35;;;;;;;32.17;18.05;;;0.60;99.90;;;;;;5293197;28;20031;-73
2021/12/20 06:01:06;;;;;;;26.50;16.40;;;0.60;99.90;;;;;;5293266;27;20028;-74
2021/12/20 06:03:37;;;;;;;35.33;18.77;;;0.70;99.90;;;;;;5291794;28;20028;-73
2021/12/20 06:06:08;;;;;;;31.15;17.45;;;0.70;99.90;;;;;;5293178;28;20026;-73
2021/12/20 06:08:39;;;;;;;25.33;15.40;;;0.80;99.90;;;;;;5292903;28;20023;-73
2021/12/20 06:11:09;;;;;;;28.05;16.67;;;0.60;99.90;;;;;;5292659;28;20167;-73
2021/12/20 06:13:40;;;;;;;26.27;14.13;;;0.40;99.90;;;;;;5293066;28;20051;-74
2021/12/20 06:16:11;;;;;;;25.50;15.73;;;0.60;99.90;;;;;;5293014;28;20900;-73
2021/12/20 06:18:42;;;;;;;25.45;13.88;;;0.80;99.90;;;;;;5292926;28;20023;-74
2021/12/20 06:21:13;;;;;;;20.88;12.15;;;1.20;99.90;;;;;;5292832;28;20042;-74
2021/12/20 06:23:44;;;;;;;28.60;13.43;;;1.20;99.90;;;;;;5292457;28;20088;-74
2021/12/20 06:26:15;;;;;;;17.63;11.80;;;1.30;99.90;;;;;;5292802;28;20371;-73
2021/12/20 06:28:46;;;;;;;22.20;11.90;;;1.50;99.90;;;;;;5292780;28;20023;-73
2021/12/20 06:31:18;;;;;;;19.95;12.40;;;1.70;99.90;;;;;;5291421;28;20077;-73
2021/12/20 06:33:49;;;;;;;26.35;14.60;;;1.70;99.90;;;;;;5292166;28;20099;-73
2021/12/20 06:36:21;;;;;;;23.73;13.50;;;1.50;99.90;;;;;;5292601;27;20103;-73
2021/12/20 06:38:54;;;;;;;32.78;18.92;;;1.70;99.90;;;;;;5292577;28;20102;-73
2021/12/20 06:41:25;;;;;;;31.10;16.52;;;1.80;99.90;;;;;;5290870;28;20062;-73
2021/12/20 06:43:56;;;;;;;28.10;15.32;;;1.70;99.90;;;;;;5290995;28;20027;-73
2021/12/20 06:46:28;;;;;;;35.10;14.65;;;1.80;99.90;;;;;;5292549;27;20466;-73
2021/12/20 06:48:59;;;;;;;33.47;15.75;;;1.70;99.90;;;;;;5291012;28;20030;-74
2021/12/20 06:51:30;;;;;;;27.35;15.48;;;1.90;99.90;;;;;;5292233;28;20023;-74
2021/12/20 06:54:01;;;;;;;29.35;16.80;;;1.90;99.90;;;;;;5292221;28;20028;-73
2021/12/20 06:56:32;;;;;;;32.28;18.65;;;2.00;99.90;;;;;;5292212;28;20081;-73
2021/12/20 06:59:03;;;;;;;30.73;15.65;;;2.10;99.90;;;;;;5292161;28;20023;-75
2021/12/20 07:01:34;;;;;;;29.98;15.60;;;2.20;99.90;;;;;;5291950;28;20530;-74
2021/12/20 07:04:05;;;;;;;26.70;14.48;;;2.20;99.90;;;;;;5291943;28;20028;-74
2021/12/20 07:06:36;;;;;;;27.17;15.15;;;2.10;99.90;;;;;;5290639;28;20085;-73
2021/12/20 07:09:08;;;;;;;33.47;15.00;;;2.10;99.90;;;;;;5291961;28;20076;-73
2021/12/20 07:11:41;;;;;;;32.47;16.52;;;2.10;99.90;;;;;;5291370;28;20131;-73
2021/12/20 07:14:12;;;;;;;24.75;14.98;;;2.10;99.90;;;;;;5291823;28;20106;-73
2021/12/20 07:16:42;;;;;;;25.60;14.55;;;2.00;99.90;;;;;;5291524;28;20075;-75
2021/12/20 07:19:13;;;;;;;28.08;15.88;;;2.00;99.90;;;;;;5291750;28;20023;-75
2021/12/20 07:21:44;;;;;;;27.35;15.55;;;1.90;99.90;;;;;;5291522;28;20028;-73
2021/12/20 07:24:15;;;;;;;29.42;16.25;;;1.90;99.90;;;;;;5290198;28;20415;-75
2021/12/20 07:26:46;;;;;;;27.95;15.82;;;1.90;99.90;;;;;;5291563;28;20016;-75
2021/12/20 07:29:17;;;;;;;27.40;16.67;;;1.90;99.90;;;;;;5291506;28;20032;-75
2021/12/20 07:31:50;;;;;;;26.27;14.98;;;2.00;99.90;;;;;;5291414;28;20367;-74
2021/12/20 07:34:20;;;;;;;27.17;15.75;;;2.00;99.90;;;;;;5291438;28;20054;-75
2021/12/20 07:36:53;;;;;;;31.30;17.58;;;2.00;99.90;;;;;;5291387;28;20374;-73
2021/12/20 07:39:24;;;;;;;35.20;17.60;;;2.10;99.90;;;;;;5290996;28;20039;-74
2021/12/20 07:41:55;;;;;;;36.15;17.35;;;2.20;99.90;;;;;;5291130;28;20035;-73
2021/12/20 07:44:26;;;;;;;27.23;11.93;;;2.30;99.90;;;;;;5290249;28;20028;-75
2021/12/20 07:46:57;;;;;;;24.15;11.82;;;2.40;99.90;;;;;;5291110;28;20038;-73
2021/12/20 07:49:28;;;;;;;20.77;12.30;;;2.60;99.90;;;;;;5291050;28;20027;-73
2021/12/20 07:51:59;;;;;;;23.70;13.18;;;2.60;99.90;;;;;;5291097;28;20026;-73
2021/12/20 07:54:30;;;;;;;18.35;11.20;;;2.60;99.90;;;;;;5290982;28;20031;-73
2021/12/20 07:57:01;;;;;;;16.27;9.95;;;2.70;99.90;;;;;;5290865;28;20036;-73
2021/12/20 07:59:32;;;;;;;19.95;10.02;;;2.70;99.90;;;;;;5290756;28;20370;-73
2021/12/20 08:02:03;;;;;;;20.65;10.68;;;2.60;99.90;;;;;;5290607;28;20036;-72
2021/12/20 08:04:34;;;;;;;18.52;8.85;;;2.60;99.90;;;;;;5290633;28;20351;-73
2021/12/20 08:07:05;;;;;;;14.55;9.52;;;2.70;99.90;;;;;;5290736;28;20031;-72
2021/12/20 08:09:35;;;;;;;16.58;9.18;;;2.70;99.90;;;;;;5290476;28;21548;-73
2021/12/20 08:12:07;;;;;;;20.00;10.38;;;2.80;99.90;;;;;;5290439;28;20490;-73
2021/12/20 08:14:38;;;;;;;18.15;9.18;;;2.80;99.90;;;;;;5290665;28;20024;-73
2021/12/20 08:17:09;;;;;;;17.15;9.20;;;2.80;99.90;;;;;;5290621;28;20444;-73
2021/12/20 08:19:39;;;;;;;15.70;8.48;;;3.00;99.90;;;;;;5290568;28;20059;-72
2021/12/20 08:22:10;;;;;;;15.07;8.15;;;3.00;99.90;;;;;;5290334;28;20449;-73
2021/12/20 08:24:41;;;;;;;15.75;8.82;;;3.10;99.90;;;;;;5290463;28;20027;-72
2021/12/20 08:27:12;;;;;;;20.08;12.35;;;3.10;99.90;;;;;;5290399;28;20023;-72
2021/12/20 08:29:43;;;;;;;21.58;10.15;;;3.10;99.90;;;;;;5290344;28;20020;-72
2021/12/20 08:32:14;;;;;;;20.35;10.07;;;3.10;99.90;;;;;;5290281;28;20027;-72
2021/12/20 08:34:45;;;;;;;14.00;7.95;;;3.10;99.90;;;;;;5290279;28;20069;-71
2021/12/20 08:37:15;;;;;;;17.83;10.82;;;3.30;99.90;;;;;;5290236;28;20027;-71
2021/12/20 08:39:46;;;;;;;17.33;9.52;;;3.20;99.90;;;;;;5290032;28;20024;-71
2021/12/20 08:42:17;;;;;;;15.20;8.00;;;3.30;99.90;;;;;;5288837;28;20036;-71
2021/12/20 08:44:49;;;;;;;13.63;8.98;;;3.40;99.90;;;;;;5290128;28;20344;-71
2021/12/20 08:47:20;;;;;;;17.40;9.25;;;3.30;99.90;;;;;;5290042;28;20039;-72
2021/12/20 08:49:51;;;;;;;15.43;9.48;;;3.30;99.90;;;;;;5290031;28;20016;-71
2021/12/20 08:52:22;;;;;;;16.05;9.40;;;3.40;99.90;;;;;;5289887;28;20085;-72
2021/12/20 08:54:53;;;;;;;21.10;11.43;;;3.50;99.90;;;;;;5290024;28;20028;-76
2021/12/20 08:57:24;;;;;;;16.98;9.32;;;3.60;99.90;;;;;;5289739;28;20080;-72
2021/12/20 08:59:54;;;;;;;16.33;8.60;;;3.70;99.90;;;;;;5289883;28;20020;-71
2021/12/20 09:02:25;;;;;;;20.85;10.35;;;3.80;99.90;;;;;;5289569;28;20118;-72
2021/12/20 09:04:56;;;;;;;19.15;9.38;;;3.80;99.90;;;;;;5289995;28;20440;-72
2021/12/20 09:07:27;;;;;;;22.75;11.40;;;3.90;99.90;;;;;;5289803;28;20533;-72
2021/12/20 09:09:58;;;;;;;28.00;15.70;;;3.90;99.90;;;;;;5289487;28;20027;-72
2021/12/20 09:12:29;;;;;;;22.90;11.85;;;3.80;99.90;;;;;;5289836;28;20031;-72
2021/12/20 09:15:00;;;;;;;19.60;11.20;;;3.80;99.90;;;;;;5289868;28;20020;-77
2021/12/20 09:17:31;;;;;;;21.48;12.30;;;3.90;99.90;;;;;;5289679;28;20119;-72
2021/12/20 09:20:02;;;;;;;25.05;12.57;;;3.80;99.90;;;;;;5289580;28;20019;-76
2021/12/20 09:22:39;;;;;;;21.55;13.15;;;3.80;99.90;;;;;;5289595;28;20063;-72
2021/12/20 09:25:09;;;;;;;23.02;12.77;;;3.90;99.90;;;;;;5289822;28;20406;-72
2021/12/20 09:27:40;;;;;;;22.98;12.18;;;3.90;99.90;;;;;;5289620;28;20039;-71
2021/12/20 09:30:12;;;;;;;23.63;14.35;;;3.90;99.90;;;;;;5289654;28;20065;-72
2021/12/20 09:32:43;;;;;;;24.80;14.23;;;3.90;99.90;;;;;;5289529;28;20023;-72
2021/12/20 09:35:15;;;;;;;25.60;13.20;;;4.00;99.90;;;;;;5289548;28;20038;-72
2021/12/20 09:37:51;;;;;;;25.40;13.98;;;4.10;99.90;;;;;;5289546;28;20027;-73
2021/12/20 09:40:36;;;;;;;24.20;13.77;;;4.10;99.90;;;;;;5289285;28;20098;-72
2021/12/20 09:43:10;;;;;;;23.95;13.65;;;4.30;99.90;;;;;;5289316;28;20024;-72
2021/12/20 09:45:43;;;;;;;20.00;12.35;;;4.00;99.90;;;;;;5289408;28;20383;-72
2021/12/20 09:48:14;;;;;;;22.85;13.10;;;4.20;99.90;;;;;;5289465;28;20018;-73
2021/12/20 09:50:46;;;;;;;20.80;12.40;;;4.40;99.90;;;;;;5289322;28;20425;-77
2021/12/20 09:53:17;;;;;;;17.50;11.52;;;4.50;99.90;;;;;;5289447;28;20097;-73
2021/12/20 09:55:50;;;;;;;17.27;9.85;;;4.20;99.90;;;;;;5289406;28;20482;-72
2021/12/20 09:58:23;;;;;;;18.85;11.02;;;4.30;99.90;;;;;;5289262;28;20011;-73
2021/12/20 10:00:55;;;;;;;16.05;9.73;;;4.50;99.90;;;;;;5289114;28;20040;-72
2021/12/20 10:03:26;;;;;;;16.58;10.48;;;4.50;99.90;;;;;;5289143;28;20463;-73
2021/12/20 10:05:57;;;;;;;15.45;9.82;;;4.50;99.90;;;;;;5282763;28;20027;-73
2021/12/20 10:08:33;;;;;;;16.45;10.02;;;4.60;99.90;;;;;;5278292;28;20053;-73
2021/12/20 10:11:24;;;;;;;16.30;10.60;;;4.60;99.90;;;;;;5282332;28;20087;-73
2021/12/20 10:14:20;;;;;;;;;;;4.80;99.90;;;;;;5286416;28;20024;-73
2021/12/20 10:17:03;;;;;;;15.65;9.60;;;5.00;99.90;;;;;;5285366;28;19903;-74
2021/12/20 10:19:38;;;;;;;16.20;9.93;;;5.10;99.90;;;;;;5288636;28;20035;-73
2021/12/20 10:22:30;;;;;;;17.33;9.88;;;5.20;99.90;;;;;;5276742;28;20510;-73
2021/12/20 10:25:02;;;;;;;19.73;10.77;;;5.20;99.90;;;;;;5289063;28;20028;-73
2021/12/20 10:27:37;;;;;;;18.75;12.38;;;5.20;99.90;;;;;;5271863;28;20103;-72
2021/12/20 10:30:59;;;;;;;20.55;11.98;;;5.20;99.90;;;;;;5271960;28;20058;-78
2021/12/20 10:33:30;;;;;;;15.25;9.45;;;5.20;99.90;;;;;;5257762;28;20126;-73
2021/12/20 10:36:12;;;;;;;18.17;10.77;;;5.30;99.90;;;;;;5292869;28;20533;-74
2021/12/20 10:38:45;;;;;;;18.65;11.18;;;5.20;99.90;;;;;;5292875;28;20027;-73
2021/12/20 10:41:28;;;;;;;17.00;11.05;;;5.30;99.90;;;;;;5292389;28;20043;-74
2021/12/20 10:44:02;;;;;;;27.23;17.17;;;5.20;99.90;;;;;;5286506;28;20036;-74
2021/12/20 10:46:36;;;;;;;18.85;11.70;;;5.40;99.90;;;;;;5275875;28;20028;-74
2021/12/20 10:49:14;;;;;;;17.85;11.20;;;5.40;99.90;;;;;;5291360;28;20077;-73
2021/12/20 10:51:48;;;;;;;16.60;11.02;;;5.40;99.90;;;;;;5292423;28;20027;-73
2021/12/20 10:54:23;;;;;;;16.95;11.23;;;5.60;99.90;;;;;;5273044;28;20032;-78
2021/12/20 10:56:57;;;;;;;20.10;11.93;;;5.50;99.90;;;;;;5271187;28;20054;-73
2021/12/20 10:59:31;;;;;;;15.90;9.65;;;5.50;99.90;;;;;;5269931;28;20066;-73
2021/12/20 11:04:49;;;;;;;16.48;10.75;;;5.80;99.90;;;;;;5282407;28;20036;-75
2021/12/20 11:09:55;;;;;;;16.17;10.38;;;5.90;99.90;;;;;;5270858;28;20032;-73
2021/12/20 11:12:32;;;;;;;16.58;9.75;;;6.10;99.90;;;;;;5283113;28;20043;-73
2021/12/20 11:15:10;;;;;;;14.65;9.43;;;6.10;99.90;;;;;;5292060;28;20081;-71
2021/12/20 11:17:43;;;;;;;14.15;9.63;;;6.20;99.90;;;;;;5291630;27;20039;-71
2021/12/20 11:20:21;;;;;;;13.75;9.13;;;6.30;99.90;;;;;;5289224;28;20024;-71
2021/12/20 11:23:02;;;;;;;34.50;20.05;;;6.30;99.90;;;;;;5288332;28;20036;-76
2021/12/20 11:25:34;;;;;;;19.05;12.55;;;6.30;99.90;;;;;;5283406;28;20051;-72
2021/12/20 11:28:05;;;;;;;19.35;10.35;;;6.40;99.90;;;;;;5277999;28;20040;-73
2021/12/20 11:30:35;;;;;;;16.95;10.25;;;6.20;99.90;;;;;;5278414;28;20076;-74
2021/12/20 11:33:06;;;;;;;18.80;12.48;;;6.30;99.90;;;;;;5276315;28;20035;-74
2021/12/20 11:35:37;;;;;;;15.23;9.10;;;6.20;99.90;;;;;;5291713;28;20028;-71
2021/12/20 11:38:09;;;;;;;16.63;10.07;;;6.20;99.90;;;;;;5290691;28;20019;-71
2021/12/20 11:40:40;;;;;;;14.70;9.73;;;6.20;99.90;;;;;;5270175;28;20028;-71
2021/12/20 11:43:11;;;;;;;15.18;10.38;;;6.00;99.90;;;;;;5269079;28;20036;-73
2021/12/20 11:45:41;;;;;;;172.10;61.03;;;6.10;99.90;;;;;;5270024;28;20047;-72
2021/12/20 11:48:14;;;;;;;105.18;40.35;;;6.10;99.90;;;;;;5278645;28;20059;-73
2021/12/20 11:50:45;;;;;;;20.52;12.05;;;6.10;99.90;;;;;;5285234;28;20104;-73
2021/12/20 11:53:19;;;;;;;27.52;16.75;;;6.00;99.90;;;;;;5290503;28;20030;-72
2021/12/20 11:55:54;;;;;;;19.75;12.70;;;6.10;99.90;;;;;;5270253;28;20016;-72
2021/12/20 11:58:28;;;;;;;28.73;16.77;;;6.10;99.90;;;;;;5270315;28;20479;-72
2021/12/20 12:01:18;;;;;;;17.40;11.48;;;6.10;99.90;;;;;;5269965;28;20031;-73
2021/12/20 12:03:55;;;;;;;19.35;10.07;;;6.20;99.90;;;;;;5280012;28;20016;-72
2021/12/20 12:06:30;;;;;;;18.02;10.40;;;6.20;99.90;;;;;;5287637;28;20043;-72
2021/12/20 12:09:02;;;;;;;18.63;12.68;;;6.20;99.90;;;;;;5276857;28;20080;-72
2021/12/20 12:11:35;;;;;;;23.88;13.32;;;6.30;99.90;;;;;;5282627;28;20082;-73
2021/12/20 12:14:18;;;;;;;15.45;10.35;;;6.30;99.90;;;;;;5277594;28;20024;-73
2021/12/20 12:17:02;;;;;;;16.40;10.45;;;6.30;99.90;;;;;;5290776;28;20080;-72
2021/12/20 12:19:54;;;;;;;16.05;10.30;;;6.30;99.90;;;;;;5290809;28;20433;-72
2021/12/20 12:22:36;;;;;;;17.48;11.07;;;6.30;99.90;;;;;;5270082;28;20032;-72
2021/12/20 12:25:12;;;;;;;17.67;10.82;;;6.30;99.90;;;;;;5269623;28;20564;-73
2021/12/20 12:27:44;;;;;;;15.02;10.10;;;6.30;99.90;;;;;;5269596;28;20012;-73
2021/12/20 12:30:25;;;;;;;19.02;10.73;;;6.30;99.90;;;;;;5269244;28;20085;-72
2021/12/20 12:32:56;;;;;;;20.80;12.20;;;6.30;99.90;;;;;;5269571;28;20027;-72
2021/12/20 12:35:39;;;;;;;35.88;24.52;;;6.30;99.90;;;;;;5268331;28;20047;-72
2021/12/20 12:38:31;;;;;;;20.42;13.55;;;6.30;99.90;;;;;;5269172;28;20020;-72
2021/12/20 12:41:05;;;;;;;16.00;11.07;;;6.20;99.90;;;;;;5269095;28;20071;-71
2021/12/20 12:44:00;;;;;;;16.27;11.30;;;6.20;99.90;;;;;;5269347;28;20380;-73
2021/12/20 12:46:56;;;;;;;19.70;12.35;;;6.20;99.90;;;;;;5269316;28;20027;-72
2021/12/20 12:49:29;;;;;;;19.92;11.80;;;6.20;99.90;;;;;;5269263;28;20024;-73
2021/12/20 12:52:04;;;;;;;19.60;11.60;;;6.30;99.90;;;;;;5269158;28;20577;-73
2021/12/20 12:54:44;;;;;;;16.27;10.90;;;6.30;99.90;;;;;;5269089;28;20131;-72
2021/12/20 12:57:15;;;;;;;16.05;10.57;;;6.30;99.90;;;;;;5267666;28;20031;-73
2021/12/20 12:59:56;;;;;;;15.15;10.57;;;6.20;99.90;;;;;;5268875;28;20081;-72
2021/12/20 13:02:30;;;;;;;17.92;10.15;;;6.30;99.90;;;;;;5268681;28;20032;-73
2021/12/20 13:05:06;;;;;;;17.38;10.77;;;6.30;99.90;;;;;;5268866;28;20044;-74
2021/12/20 13:07:42;;;;;;;16.98;11.10;;;6.30;99.90;;;;;;5268787;28;20032;-72
2021/12/20 13:10:29;;;;;;;15.95;10.90;;;6.30;99.90;;;;;;5268377;28;20063;-78
2021/12/20 13:13:07;;;;;;;16.02;10.38;;;6.30;99.90;;;;;;5268755;28;20402;-72
2021/12/20 13:15:43;;;;;;;19.45;11.55;;;6.30;99.90;;;;;;5268731;28;20111;-73
2021/12/20 13:18:37;;;;;;;20.80;11.10;;;6.40;99.90;;;;;;5267455;28;20016;-72
2021/12/20 13:21:08;;;;;;;16.98;11.23;;;6.50;99.90;;;;;;5268202;28;20043;-72
2021/12/20 13:23:46;;;;;;;17.88;11.88;;;6.40;99.90;;;;;;5268448;28;20038;-73